• Join FlightAware (Why Join?)
  • Login
  • US Flag 
11:21PM EDT


 

Airport Tracker/Info


-or-


 

Live Flight TrackerFlight Track Log ✈ CTL13 ✈ 25-Jun-2013 ✈ KBKL - KEYE

Flight Track Log - Related Links

Times and Time Zones

All times are in EDT time to prevent confusion due to time zone crossing. See the CTL13 flight status page for this flight to view local times or setup timezone preferences in your user account.

Time Position Orientation Groundspeed Altitude Reporting Facility
EDT Latitude Longitude Course Direction KTS MPH feet Rate Location/Type
06:19PM 41.5208 -81.7064 248° West 124 143 1,300  Level Cleveland Center
06:20PM 41.5458 -81.7178 341° North 125 144 2,100 480 Climbing Cleveland Center
06:21PM 41.5578 -81.7625 290° West 158 182 2,200 60 Climbing Cleveland Center
06:22PM 41.5717 -81.8239 287° West 167 192 2,300 480 Climbing Cleveland Center
06:23PM 41.5733 -81.8794 272° West 126 145 3,300 720 Climbing Cleveland Center
06:24PM 41.5728 -81.9292 269° West 131 151 3,800 600 Climbing Cleveland Center
06:25PM 41.3948 -81.9836 248° West  Level FlightAware Approximate
06:25PM 41.5722 -81.9764 269° West 126 145 4,600  Level Cleveland Center
06:26PM 41.5550 -82.0150 239° Southwest 126 145 5,200 540 Climbing Cleveland Center
06:27PM 41.5378 -82.0589 242° Southwest 130 150 5,800 540 Climbing Cleveland Center
06:28PM 41.5183 -82.0944 234° Southwest 129 148 6,300 600 Climbing Cleveland Center
06:29PM 41.4992 -82.1383 240° Southwest 129 148 7,000 540 Climbing Cleveland Center
06:30PM 41.4819 -82.1769 239° Southwest 125 144 7,500 -60 Climbing Cleveland Center
06:32PM 41.4545 -82.2504 243° Southwest  Level Estimated
06:39PM 41.3311 -82.5778 243° Southwest  Level Estimated
06:40PM 41.3134 -82.6245 243° Southwest  Level Estimated
06:41PM 41.2957 -82.6711 243° Southwest  Level Estimated
06:42PM 41.2780 -82.7178 243° Southwest  Level Estimated
06:43PM 41.2602 -82.7644 243° Southwest  Level Estimated
06:44PM 41.2425 -82.8109 243° Southwest  Level Estimated
06:45PM 41.2247 -82.8575 243° Southwest  Level Estimated
06:46PM 41.2068 -82.9040 243° Southwest  Level Estimated
06:47PM 41.1890 -82.9505 243° Southwest  Level Estimated
06:48PM 41.1712 -82.9969 243° Southwest  Level Estimated
06:49PM 41.1533 -83.0434 243° Southwest  Level Estimated
06:50PM 41.1354 -83.0898 243° Southwest  Level Estimated
06:51PM 41.1174 -83.1364 243° Southwest  Level Estimated
06:52PM 41.0947 -83.1789 235° Southwest  Level FlightAware Approximate
06:53PM 41.0710 -83.2250 237° Southwest  Level FlightAware Approximate
06:54PM 41.0494 -83.2685 237° Southwest  Level FlightAware Approximate
06:55PM 41.0278 -83.3120 237° Southwest  Level FlightAware Approximate
06:56PM 41.0061 -83.3555 237° Southwest  Level FlightAware Approximate
06:57PM 40.9845 -83.3990 237° Southwest  Level FlightAware Approximate
06:58PM 40.9628 -83.4424 237° Southwest  Level FlightAware Approximate
06:59PM 40.9412 -83.4858 237° Southwest  Level FlightAware Approximate
07:00PM 40.9195 -83.5292 237° Southwest  Level FlightAware Approximate
07:01PM 40.8978 -83.5725 236° Southwest  Level FlightAware Approximate
07:01PM 40.8289 -83.5956 235° Southwest 147 169 6,200  Level Indianapolis Center
07:02PM 40.8760 -83.6159 236° Southwest  Level FlightAware Approximate
07:02PM 40.8072 -83.6422 238° Southwest 147 169 6,100  Level Indianapolis Center
07:03PM 40.8543 -83.6592 236° Southwest  Level FlightAware Approximate
07:03PM 40.7864 -83.6864 238° Southwest 143 165 6,100  Level Indianapolis Center
07:04PM 40.8325 -83.7024 236° Southwest  Level FlightAware Approximate
07:04PM 40.7653 -83.7317 238° Southwest 143 165 6,100  Level Indianapolis Center
07:05PM 40.8107 -83.7457 236° Southwest  Level FlightAware Approximate
07:05PM 40.7436 -83.7731 235° Southwest 138 159 6,100  Level Indianapolis Center
07:06PM 40.7890 -83.7888 236° Southwest  Level FlightAware Approximate
07:06PM 40.7231 -83.8192 240° Southwest 142 163 6,200  Level Indianapolis Center
07:07PM 40.7665 -83.8314 235° Southwest  Level FlightAware Approximate
07:07PM 40.6969 -83.8722 237° Southwest 145 167 6,200  Level Indianapolis Center
07:08PM 40.6769 -83.9186 240° Southwest 145 167 6,200  Level Indianapolis Center
07:10PM 40.6547 -83.9633 237° Southwest 146 168 6,200  Level Indianapolis Center
07:11PM 40.6333 -84.0094 239° Southwest 146 168 6,200  Level Indianapolis Center
07:12PM 40.6119 -84.0539 238° Southwest 146 168 6,200 -60 Level Indianapolis Center
07:13PM 40.5833 -84.1139 238° Southwest 144 166 6,100 -60 Descending Indianapolis Center
07:14PM 40.5708 -84.1444 242° Southwest 143 165 6,100  Level Indianapolis Center
07:15PM 40.5406 -84.2072 238° Southwest 147 169 6,100  Level Indianapolis Center
07:16PM 40.5236 -84.2419 237° Southwest 144 166 6,100  Level Indianapolis Center
07:17PM 40.5014 -84.2878 237° Southwest 146 168 6,100  Level Indianapolis Center
07:18PM 40.4792 -84.3333 237° Southwest 147 169 6,100  Level Indianapolis Center
07:19PM 40.4583 -84.3808 240° Southwest 147 169 6,100  Level Indianapolis Center
07:20PM 40.4356 -84.4281 238° Southwest 149 171 6,100  Level Indianapolis Center
07:21PM 40.4103 -84.4750 235° Southwest 149 171 6,100  Level Indianapolis Center
07:22PM 40.3853 -84.5275 238° Southwest 150 173 6,100  Level Indianapolis Center
07:23PM 40.3628 -84.5747 238° Southwest 151 174 6,100  Level Indianapolis Center
07:24PM 40.3422 -84.6203 239° Southwest 146 168 6,100  Level Indianapolis Center
07:25PM 40.3192 -84.6664 237° Southwest 148 170 6,200  Climbing Indianapolis Center
07:26PM 40.2975 -84.7117 238° Southwest 147 169 6,100 -60 Descending Indianapolis Center
07:27PM 40.2717 -84.7622 236° Southwest 147 169 6,100  Level Indianapolis Center
07:28PM 40.2511 -84.8058 238° Southwest 150 173 6,100  Level Indianapolis Center
07:29PM 40.2283 -84.8519 237° Southwest 150 173 6,100  Level Indianapolis Center
07:30PM 40.2056 -84.8981 237° Southwest 150 173 6,200  Climbing Indianapolis Center
07:31PM 40.1831 -84.9411 236° Southwest 147 169 6,100 -60 Descending Indianapolis Center
07:32PM 40.1586 -84.9892 236° Southwest 146 168 6,100  Level Indianapolis Center
07:33PM 40.1386 -85.0339 240° Southwest 144 166 6,100  Level Indianapolis Center
07:34PM 40.1269 -85.0958 256° West 146 168 6,100  Level Indianapolis Center
07:35PM 40.1142 -85.1461 252° West 146 168 6,100  Level Indianapolis Center
07:36PM 40.1033 -85.1972 255° West 145 167 6,100  Level Indianapolis Center
07:37PM 40.0906 -85.2464 251° West 145 167 6,100  Level Indianapolis Center
07:38PM 40.0783 -85.2986 253° West 147 169 6,100 -300 Level Indianapolis Center
07:39PM 40.0653 -85.3519 252° West 150 173 5,600 -600 Descending Indianapolis Center
07:41PM 40.0500 -85.4239 255° West 162 186 4,900 -540 Descending Indianapolis Center
07:42PM 40.0386 -85.4842 256° West 169 194 4,500 -420 Descending Indianapolis Center
07:43PM 40.0247 -85.5417 253° West 168 193 4,100 -240 Descending Indianapolis Center
07:44PM 40.0106 -85.5967 251° West 165 190 4,100  Level Indianapolis Center
07:45PM 39.9981 -85.6486 253° West 158 182 4,200  Climbing Indianapolis Center
07:46PM 39.9872 -85.7019 255° West 154 177 4,100 -60 Descending Indianapolis Center
07:47PM 39.9714 -85.7644 252° West 153 176 4,100  Level Indianapolis Center
07:48PM 39.9558 -85.8156 248° West 152 175 4,100 -300 Level Indianapolis Center
07:49PM 39.9419 -85.8678 251° West 152 175 3,600 -540 Descending Indianapolis Center
07:50PM 39.9289 -85.9267 254° West 160 184 3,100 -300 Descending Indianapolis Center
07:51PM 39.9153 -85.9819 252° West 162 186 3,100 -180 Level Indianapolis Center
07:52PM 39.9022 -86.0331 252° West 157 181 2,800 -360 Descending Indianapolis Center
07:53PM 39.8839 -86.0972 250° West 156 180 2,400 -360 Descending Indianapolis Center
07:54PM 39.8661 -86.1486 246° West 157 181 2,100 -300 Descending Indianapolis Center
07:55PM 39.8561 -86.2003 256° West 153 176 1,900 -240 Descending Indianapolis Center
07:56PM 39.8450 -86.2475 253° West 145 167 1,700 -360 Descending Indianapolis Center
07:57PM 39.8392 -86.2867 259° West 127 146 1,200 -540 Descending Indianapolis Center